createdAt,value
2022-08-11T00:02:38.372Z,69.54
2022-08-11T00:05:09.504Z,69.54
2022-08-11T00:07:52.655Z,69.69
2022-08-11T00:10:29.853Z,69.84
2022-08-11T00:13:03.774Z,69.96
2022-08-11T00:15:44.242Z,70.05
2022-08-11T00:18:13.642Z,70.09
2022-08-11T00:20:44.071Z,70.22
2022-08-11T00:23:19.842Z,70.30
2022-08-11T00:25:52.071Z,70.62
2022-08-11T00:28:34.423Z,70.88
2022-08-11T00:31:08.044Z,70.90
2022-08-11T00:33:44.518Z,70.94
2022-08-11T00:36:19.787Z,71.23
2022-08-11T00:38:52.657Z,71.38
2022-08-11T00:41:36.420Z,71.58
2022-08-11T00:44:04.037Z,71.65
2022-08-11T00:46:55.857Z,71.67
2022-08-11T00:49:43.211Z,71.56
2022-08-11T00:52:28.921Z,71.74
2022-08-11T00:55:18.311Z,71.92
2022-08-11T00:58:23.401Z,72.00
2022-08-11T01:01:18.522Z,72.17
2022-08-11T01:04:01.417Z,72.29
2022-08-11T01:06:50.319Z,72.30
2022-08-11T01:09:52.153Z,72.48
2022-08-11T01:12:40.736Z,72.75
2022-08-11T01:15:37.521Z,72.74
2022-08-11T01:18:44.083Z,72.82
2022-08-11T01:21:40.310Z,72.99
2022-08-11T01:24:38.640Z,73.00
2022-08-11T01:27:49.305Z,73.19
2022-08-11T01:30:48.852Z,73.46
2022-08-11T01:33:55.766Z,73.72
2022-08-11T01:37:00.769Z,73.76
2022-08-11T01:40:09.340Z,74.11
2022-08-11T01:43:35.872Z,74.15
2022-08-11T01:46:23.632Z,74.19
2022-08-11T01:50:02.882Z,74.05
2022-08-11T01:52:03.162Z,74.09
2022-08-11T01:54:49.505Z,73.87
2022-08-11T01:57:35.444Z,73.95
2022-08-11T02:00:12.413Z,74.07
2022-08-11T02:02:58.573Z,73.94
2022-08-11T02:05:56.339Z,74.07
2022-08-11T02:08:44.182Z,74.03
2022-08-11T02:11:35.346Z,74.19
2022-08-11T02:14:10.841Z,74.37
2022-08-11T02:17:11.878Z,74.42
2022-08-11T02:20:13.850Z,74.50
2022-08-11T02:23:12.469Z,74.50
2022-08-11T02:25:58.863Z,74.39
2022-08-11T02:28:46.648Z,74.27
2022-08-11T02:32:15.768Z,74.15
2022-08-11T02:35:00.781Z,74.31
2022-08-11T02:37:34.561Z,74.38
2022-08-11T02:40:17.696Z,74.44
2022-08-11T02:42:45.633Z,74.54
2022-08-11T02:45:40.076Z,74.59
2022-08-11T02:48:43.859Z,74.80
2022-08-11T02:51:35.686Z,74.81
2022-08-11T02:54:21.429Z,74.80
2022-08-11T02:57:04.521Z,75.01
2022-08-11T02:59:51.065Z,75.23
2022-08-11T03:02:46.806Z,75.21
2022-08-11T03:05:41.887Z,75.36
2022-08-11T03:08:30.126Z,75.47
2022-08-11T03:11:26.114Z,75.41
2022-08-11T03:14:28.299Z,75.50
2022-08-11T03:17:12.931Z,75.63
2022-08-11T03:19:53.771Z,75.85
2022-08-11T03:22:38.910Z,75.88
2022-08-11T03:25:16.106Z,75.88
2022-08-11T03:27:54.074Z,75.88
2022-08-11T03:30:28.232Z,75.85
2022-08-11T03:33:37.794Z,76.02
2022-08-11T03:36:54.557Z,76.21
2022-08-11T03:39:56.127Z,76.22
2022-08-11T03:42:47.491Z,76.12
2022-08-11T03:45:57.429Z,76.13
2022-08-11T03:48:58.944Z,76.09
2022-08-11T03:51:51.525Z,76.00
2022-08-11T03:54:43.234Z,75.97
2022-08-11T03:57:44.305Z,76.04
2022-08-11T04:00:50.325Z,76.14
2022-08-11T04:03:36.401Z,76.37
2022-08-11T04:06:45.899Z,76.36
2022-08-11T04:09:47.552Z,76.49
2022-08-11T04:12:47.551Z,76.66
2022-08-11T04:15:57.395Z,76.80
2022-08-11T04:19:07.747Z,76.80
2022-08-11T04:21:35.442Z,77.11
2022-08-11T04:24:33.228Z,77.08
2022-08-11T04:27:36.925Z,77.33
2022-08-11T04:30:22.880Z,77.48
2022-08-11T04:33:36.482Z,77.55
2022-08-11T04:36:52.808Z,77.56
2022-08-11T04:39:57.392Z,77.92
2022-08-11T04:43:18.686Z,78.38
2022-08-11T04:46:06.442Z,78.09
2022-08-11T04:49:25.814Z,78.18
2022-08-11T04:52:41.653Z,78.01
2022-08-11T04:55:58.894Z,78.09
2022-08-11T04:59:03.523Z,78.26
2022-08-11T05:01:55.579Z,78.06
2022-08-11T05:04:59.983Z,77.84
2022-08-11T05:07:46.027Z,77.75
2022-08-11T05:10:25.850Z,77.65
2022-08-11T05:12:55.308Z,77.53
2022-08-11T05:16:01.334Z,77.57
2022-08-11T05:18:48.724Z,77.69
2022-08-11T05:21:44.989Z,77.60
2022-08-11T05:25:14.980Z,77.51
2022-08-11T05:28:30.075Z,77.33
2022-08-11T05:31:21.756Z,77.14
2022-08-11T05:34:11.156Z,77.00
2022-08-11T05:36:50.628Z,76.97
2022-08-11T05:39:44.634Z,76.74
2022-08-11T05:42:31.692Z,76.77
2022-08-11T05:45:23.038Z,76.63
2022-08-11T05:48:10.324Z,76.40
2022-08-11T05:50:58.619Z,76.35
2022-08-11T05:53:46.259Z,76.19
2022-08-11T05:56:21.044Z,76.06
2022-08-11T05:58:53.634Z,75.90
2022-08-11T06:01:23.481Z,75.74
2022-08-11T06:04:13.623Z,75.55
2022-08-11T06:06:57.966Z,75.21
2022-08-11T06:09:34.934Z,74.97
2022-08-11T06:12:15.985Z,74.75
2022-08-11T06:14:46.236Z,74.58
2022-08-11T06:17:14.682Z,74.39
2022-08-11T06:19:47.710Z,74.34
2022-08-11T06:22:21.825Z,74.25
2022-08-11T06:25:01.590Z,74.00
2022-08-11T06:27:35.497Z,73.73
2022-08-11T06:30:15.563Z,73.38
2022-08-11T06:32:51.495Z,73.18
2022-08-11T06:35:46.279Z,73.13
2022-08-11T06:38:32.257Z,72.89
2022-08-11T06:41:26.443Z,72.63
2022-08-11T06:44:07.655Z,72.24
2022-08-11T06:46:41.791Z,71.70
2022-08-11T06:49:30.697Z,71.26
2022-08-11T06:52:34.777Z,70.85
2022-08-11T06:55:07.639Z,70.35
2022-08-11T06:57:58.186Z,70.15
2022-08-11T07:00:29.666Z,69.48
2022-08-11T07:03:11.805Z,69.00
2022-08-11T07:06:06.563Z,68.88
2022-08-11T07:09:06.065Z,68.40
2022-08-11T07:12:08.852Z,67.81
2022-08-11T07:15:00.922Z,67.02
2022-08-11T07:17:32.012Z,65.62
2022-08-11T07:20:21.679Z,61.57
2022-08-11T07:23:13.720Z,56.18
2022-08-11T07:26:02.168Z,52.23
2022-08-11T07:28:52.661Z,47.03
2022-08-11T07:31:29.386Z,45.61
2022-08-11T07:34:19.379Z,44.77
2022-08-11T07:36:53.700Z,42.56
2022-08-11T07:39:27.445Z,40.90
2022-08-11T07:41:58.520Z,40.17
2022-08-11T07:44:35.087Z,43.04
2022-08-11T07:47:22.092Z,40.38
2022-08-11T07:50:12.834Z,40.38
2022-08-11T07:52:40.958Z,36.50
2022-08-11T07:55:14.673Z,36.20
2022-08-11T07:58:16.164Z,36.94
2022-08-11T08:01:22.335Z,36.90
2022-08-11T08:04:10.332Z,38.29
2022-08-11T08:06:57.679Z,37.75
2022-08-11T08:09:44.541Z,37.94
2022-08-11T08:12:31.975Z,38.19
2022-08-11T08:15:20.249Z,37.79
2022-08-11T08:18:09.476Z,38.17
2022-08-11T08:20:50.674Z,37.65
2022-08-11T08:23:34.354Z,38.09
2022-08-11T08:26:26.252Z,36.87
2022-08-11T08:29:16.581Z,35.19
2022-08-11T08:31:48.531Z,34.11
2022-08-11T08:34:17.731Z,34.48
2022-08-11T08:36:49.423Z,34.00
2022-08-11T08:39:22.033Z,32.12
2022-08-11T08:41:54.868Z,32.18
2022-08-11T08:44:41.534Z,29.27
2022-08-11T08:47:43.069Z,30.36
2022-08-11T08:50:16.634Z,32.46
2022-08-11T08:53:12.023Z,33.48
2022-08-11T08:55:45.322Z,32.17
2022-08-11T08:58:15.951Z,31.09
2022-08-11T09:00:46.854Z,28.74
2022-08-11T09:03:39.902Z,28.41
2022-08-11T09:06:03.110Z,29.56
2022-08-11T09:08:33.864Z,30.68
2022-08-11T09:11:22.788Z,31.85
2022-08-11T09:14:04.874Z,30.86
2022-08-11T09:16:39.263Z,30.01
2022-08-11T09:19:08.273Z,28.02
2022-08-11T09:21:48.150Z,29.64
2022-08-11T09:24:38.384Z,29.88
2022-08-11T09:27:08.490Z,29.58
2022-08-11T09:29:38.769Z,29.09
2022-08-11T09:32:08.487Z,27.71
2022-08-11T09:34:37.497Z,26.83
2022-08-11T09:37:55.803Z,26.53
2022-08-11T09:42:23.616Z,27.51
2022-08-11T09:43:39.194Z,29.62
2022-08-11T09:46:08.950Z,30.36
2022-08-11T09:48:40.568Z,31.29
2022-08-11T09:51:10.080Z,32.50
2022-08-11T09:54:02.673Z,33.33
2022-08-11T09:56:50.639Z,34.24
2022-08-11T09:59:22.014Z,35.43
2022-08-11T10:01:57.086Z,36.89
2022-08-11T10:04:32.881Z,39.01
2022-08-11T10:07:04.461Z,39.98
2022-08-11T10:09:38.389Z,40.39
2022-08-11T10:12:10.980Z,42.33
2022-08-11T10:15:00.713Z,43.55
2022-08-11T10:17:33.154Z,43.64
2022-08-11T10:20:05.900Z,43.92
2022-08-11T10:22:54.247Z,44.37
2022-08-11T10:25:41.227Z,45.68
2022-08-11T10:28:28.583Z,46.82
2022-08-11T10:31:17.283Z,45.53
2022-08-11T10:34:03.570Z,45.67
2022-08-11T10:36:34.218Z,46.29
2022-08-11T10:39:06.302Z,47.37
2022-08-11T10:42:06.837Z,47.99
2022-08-11T10:44:44.646Z,48.20
2022-08-11T10:47:34.061Z,49.54
2022-08-11T10:50:22.556Z,50.18
2022-08-11T10:53:09.333Z,48.96
2022-08-11T10:55:58.633Z,49.89
2022-08-11T10:58:45.945Z,50.12
2022-08-11T11:01:15.870Z,50.43
2022-08-11T11:03:44.595Z,51.45
2022-08-11T11:06:29.433Z,50.56
2022-08-11T11:09:14.887Z,51.22
2022-08-11T11:12:11.522Z,50.89
2022-08-11T11:15:01.018Z,50.76
2022-08-11T11:18:04.921Z,50.56
2022-08-11T11:20:47.171Z,50.59
2022-08-11T11:23:32.843Z,51.51
2022-08-11T11:26:14.503Z,51.07
2022-08-11T11:29:03.240Z,50.67
2022-08-11T11:31:38.807Z,50.48
2022-08-11T11:34:20.120Z,50.31
2022-08-11T11:36:51.758Z,50.57
2022-08-11T11:39:25.577Z,50.50
2022-08-11T11:42:03.349Z,50.60
2022-08-11T11:44:32.725Z,50.58
2022-08-11T11:47:01.484Z,50.94
2022-08-11T11:49:32.475Z,51.60
2022-08-11T11:52:01.259Z,52.06
2022-08-11T11:54:31.893Z,51.65
2022-08-11T11:57:21.727Z,51.44
2022-08-11T12:00:10.637Z,52.06
2022-08-11T12:02:40.765Z,53.19
2022-08-11T12:05:10.354Z,53.60
2022-08-11T12:08:10.426Z,53.43
2022-08-11T12:10:47.750Z,52.47
2022-08-11T12:13:37.586Z,52.80
2022-08-11T12:16:32.825Z,52.03
2022-08-11T12:18:57.093Z,51.21
2022-08-11T12:21:26.439Z,51.99
2022-08-11T12:24:15.505Z,51.67
2022-08-11T12:27:15.051Z,51.66
2022-08-11T12:29:41.145Z,52.94
2022-08-11T12:32:12.328Z,52.97
2022-08-11T12:34:40.402Z,53.00
2022-08-11T12:37:13.719Z,53.21
2022-08-11T12:40:16.553Z,52.86
2022-08-11T12:43:36.930Z,53.02
2022-08-11T12:46:10.643Z,51.93
2022-08-11T12:49:04.239Z,51.85
2022-08-11T12:52:01.432Z,51.11
2022-08-11T12:54:51.926Z,51.73
2022-08-11T12:58:04.347Z,52.15
2022-08-11T13:00:51.844Z,52.16
2022-08-11T13:03:39.815Z,52.00
2022-08-11T13:06:08.020Z,52.13
2022-08-11T13:08:39.522Z,50.85
2022-08-11T13:11:56.199Z,51.62
2022-08-11T13:14:17.122Z,50.97
2022-08-11T13:17:05.379Z,49.90
2022-08-11T13:19:34.633Z,49.19
2022-08-11T13:22:07.484Z,49.81
2022-08-11T13:24:36.628Z,49.63
2022-08-11T13:27:05.075Z,49.60
2022-08-11T13:29:33.323Z,49.40
2022-08-11T13:32:01.153Z,49.34
2022-08-11T13:34:31.415Z,49.73
2022-08-11T13:37:02.171Z,48.64
2022-08-11T13:39:32.418Z,48.79
2022-08-11T13:42:02.597Z,48.83
2022-08-11T13:44:33.472Z,49.37
2022-08-11T13:47:04.469Z,50.67
2022-08-11T13:49:35.918Z,51.36
2022-08-11T13:52:06.693Z,51.42
2022-08-11T13:54:38.565Z,50.93
2022-08-11T13:57:13.649Z,51.48
2022-08-11T14:00:09.701Z,51.88
2022-08-11T14:02:43.698Z,57.33
2022-08-11T14:05:18.136Z,61.72
2022-08-11T14:07:52.352Z,64.02
2022-08-11T14:10:25.437Z,65.43
2022-08-11T14:13:18.634Z,65.83
2022-08-11T14:15:49.547Z,66.69
2022-08-11T14:18:20.474Z,64.81
2022-08-11T14:21:13.841Z,65.05
2022-08-11T14:23:45.823Z,65.78
2022-08-11T14:26:29.614Z,67.18
2022-08-11T14:29:11.106Z,66.49
2022-08-11T14:31:45.693Z,65.93
2022-08-11T14:34:14.739Z,65.79
2022-08-11T14:36:47.315Z,66.77
2022-08-11T14:39:18.239Z,66.93
2022-08-11T14:42:13.397Z,69.55
2022-08-11T14:45:24.230Z,69.03
2022-08-11T14:47:54.856Z,69.76
2022-08-11T14:50:26.004Z,70.12
2022-08-11T14:52:58.332Z,71.53
2022-08-11T14:55:47.623Z,71.32
2022-08-11T14:58:18.502Z,71.54
2022-08-11T15:00:47.481Z,71.80
2022-08-11T15:03:15.849Z,71.57
2022-08-11T15:05:58.329Z,71.03
2022-08-11T15:08:48.754Z,71.14
2022-08-11T15:11:37.537Z,71.38
2022-08-11T15:14:08.007Z,71.32
2022-08-11T15:17:00.733Z,71.62
2022-08-11T15:19:40.182Z,72.59
2022-08-11T15:22:29.379Z,72.58
2022-08-11T15:25:02.758Z,73.16
2022-08-11T15:27:50.235Z,73.25
2022-08-11T15:30:36.716Z,73.63
2022-08-11T15:33:25.791Z,73.49
2022-08-11T15:36:14.127Z,74.31
2022-08-11T15:38:47.719Z,74.05
2022-08-11T15:41:37.000Z,74.07
2022-08-11T15:44:51.371Z,74.51
2022-08-11T15:47:20.455Z,74.91
2022-08-11T15:50:10.861Z,74.60
2022-08-11T15:52:48.451Z,74.41
2022-08-11T15:55:17.008Z,74.35
2022-08-11T15:58:07.315Z,74.08
2022-08-11T16:00:58.929Z,74.91
2022-08-11T16:04:08.222Z,74.76
2022-08-11T16:06:47.146Z,74.72
2022-08-11T16:09:33.815Z,74.36
2022-08-11T16:12:23.167Z,74.76
2022-08-11T16:15:20.873Z,75.14
2022-08-11T16:17:52.155Z,74.76
2022-08-11T16:20:23.424Z,74.60
2022-08-11T16:23:00.507Z,74.72
2022-08-11T16:27:05.988Z,75.40
2022-08-11T16:28:27.021Z,75.95
2022-08-11T16:30:56.639Z,75.70
2022-08-11T16:33:48.623Z,75.56
2022-08-11T16:36:34.763Z,75.99
2022-08-11T16:39:04.246Z,76.17
2022-08-11T16:41:53.286Z,75.98
2022-08-11T16:44:41.076Z,76.27
2022-08-11T16:47:14.147Z,76.64
2022-08-11T16:49:52.784Z,76.25
2022-08-11T16:52:23.735Z,76.07
2022-08-11T16:54:52.883Z,76.00
2022-08-11T16:57:44.691Z,76.25
2022-08-11T17:00:17.916Z,76.68
2022-08-11T17:03:06.801Z,76.71
2022-08-11T17:05:55.436Z,76.58
2022-08-11T17:08:57.577Z,76.69
2022-08-11T17:11:47.518Z,76.77
2022-08-11T17:14:35.785Z,76.82
2022-08-11T17:17:13.510Z,77.19
2022-08-11T17:20:38.535Z,77.41
2022-08-11T17:23:01.462Z,77.45
2022-08-11T17:25:32.385Z,77.58
2022-08-11T17:28:24.557Z,77.71
2022-08-11T17:31:21.724Z,77.84
2022-08-11T17:34:11.969Z,78.01
2022-08-11T17:36:45.502Z,78.22
2022-08-11T17:39:15.267Z,78.01
2022-08-11T17:42:03.545Z,77.97
2022-08-11T17:44:51.905Z,78.23
2022-08-11T17:47:38.860Z,78.37
2022-08-11T17:50:16.700Z,78.40
2022-08-11T17:53:06.306Z,78.31
2022-08-11T17:55:54.836Z,78.29
2022-08-11T17:58:43.332Z,78.30
2022-08-11T18:01:12.518Z,78.33
2022-08-11T18:03:41.865Z,78.47
2022-08-11T18:06:21.791Z,78.45
2022-08-11T18:09:24.417Z,78.63
2022-08-11T18:12:13.140Z,78.55
2022-08-11T18:15:04.876Z,78.53
2022-08-11T18:17:52.619Z,78.60
2022-08-11T18:20:39.582Z,78.71
2022-08-11T18:23:41.680Z,78.69
2022-08-11T18:26:39.197Z,78.70
2022-08-11T18:29:26.724Z,78.80
2022-08-11T18:32:21.211Z,78.79
2022-08-11T18:35:13.300Z,78.95
2022-08-11T18:38:04.850Z,79.01
2022-08-11T18:40:54.133Z,78.99
2022-08-11T18:43:43.058Z,79.06
2022-08-11T18:46:32.770Z,79.06
2022-08-11T18:49:34.260Z,79.06
2022-08-11T18:52:36.770Z,79.22
2022-08-11T18:55:28.197Z,79.16
2022-08-11T18:58:16.501Z,79.09
2022-08-11T19:01:04.892Z,79.24
2022-08-11T19:03:54.258Z,79.29
2022-08-11T19:06:42.742Z,79.25
2022-08-11T19:09:33.358Z,79.31
2022-08-11T19:12:20.642Z,79.38
2022-08-11T19:15:09.183Z,79.36
2022-08-11T19:18:00.255Z,79.45
2022-08-11T19:20:49.639Z,79.36
2022-08-11T19:23:43.544Z,79.40
2022-08-11T19:26:31.102Z,79.57
2022-08-11T19:30:04.857Z,79.58
2022-08-11T19:32:30.580Z,79.43
2022-08-11T19:35:19.724Z,79.44
2022-08-11T19:38:08.349Z,79.55
2022-08-11T19:40:57.780Z,79.83
2022-08-11T19:43:49.281Z,80.04
2022-08-11T19:46:41.531Z,80.24
2022-08-11T19:49:30.105Z,80.28
2022-08-11T19:52:19.149Z,80.37
2022-08-11T19:55:08.061Z,80.45
2022-08-11T19:57:57.619Z,80.57
2022-08-11T20:00:44.984Z,80.69
2022-08-11T20:03:32.552Z,80.77
2022-08-11T20:06:23.485Z,80.83
2022-08-11T20:09:19.484Z,80.90
2022-08-11T20:12:12.283Z,80.95
2022-08-11T20:15:00.767Z,80.99
2022-08-11T20:17:53.561Z,80.99
2022-08-11T20:20:43.893Z,81.09
2022-08-11T20:23:33.465Z,81.13
2022-08-11T20:26:30.789Z,81.12
2022-08-11T20:29:18.973Z,81.03
2022-08-11T20:32:09.280Z,81.12
2022-08-11T20:34:58.290Z,81.12
2022-08-11T20:37:50.385Z,81.10
2022-08-11T20:40:42.585Z,81.06
2022-08-11T20:44:06.180Z,81.08
2022-08-11T20:46:44.047Z,81.14
2022-08-11T20:49:42.314Z,81.17
2022-08-11T20:52:37.730Z,81.24
2022-08-11T20:55:46.253Z,81.29
2022-08-11T20:59:04.046Z,81.25
2022-08-11T21:01:44.478Z,81.30
2022-08-11T21:04:31.272Z,81.25
2022-08-11T21:07:28.749Z,81.26
2022-08-11T21:10:24.024Z,81.22
2022-08-11T21:13:25.187Z,81.22
2022-08-11T21:16:25.345Z,81.25
2022-08-11T21:20:00.719Z,81.30
2022-08-11T21:22:33.446Z,81.27
2022-08-11T21:25:20.729Z,81.24
2022-08-11T21:28:09.187Z,81.28
2022-08-11T21:30:58.006Z,81.39
2022-08-11T21:33:49.931Z,81.43
2022-08-11T21:36:37.770Z,81.48
2022-08-11T21:39:26.636Z,81.51
2022-08-11T21:42:13.927Z,81.66
2022-08-11T21:45:01.944Z,81.67
2022-08-11T21:48:00.712Z,81.69
2022-08-11T21:50:48.346Z,81.70
2022-08-11T21:53:35.883Z,81.69
2022-08-11T21:56:25.563Z,81.69
2022-08-11T21:59:16.100Z,81.78
2022-08-11T22:02:06.160Z,81.91
2022-08-11T22:04:55.420Z,82.06
2022-08-11T22:07:42.741Z,82.08
2022-08-11T22:10:40.632Z,82.15
2022-08-11T22:13:30.881Z,82.24
2022-08-11T22:16:19.298Z,82.20
2022-08-11T22:19:09.615Z,82.31
2022-08-11T22:22:03.372Z,82.29
2022-08-11T22:24:53.434Z,82.30
2022-08-11T22:27:40.367Z,82.24
2022-08-11T22:30:29.208Z,82.18
2022-08-11T22:33:25.639Z,82.32
2022-08-11T22:36:16.551Z,82.33
2022-08-11T22:39:04.075Z,82.29
2022-08-11T22:41:50.834Z,82.28
2022-08-11T22:44:37.146Z,82.28
2022-08-11T22:47:23.833Z,82.27
2022-08-11T22:50:16.468Z,82.13
2022-08-11T22:53:05.266Z,82.03
2022-08-11T22:55:52.237Z,82.08
2022-08-11T22:58:40.321Z,82.11
2022-08-11T23:01:27.611Z,82.29
2022-08-11T23:04:15.102Z,82.47
2022-08-11T23:07:02.080Z,82.60
2022-08-11T23:09:49.342Z,82.70
2022-08-11T23:12:37.178Z,82.92
2022-08-11T23:15:24.670Z,83.02
2022-08-11T23:18:11.439Z,82.96
2022-08-11T23:20:58.989Z,82.97
2022-08-11T23:23:47.478Z,83.05
2022-08-11T23:26:37.422Z,83.13
2022-08-11T23:29:26.181Z,83.13
2022-08-11T23:32:13.664Z,83.09
2022-08-11T23:35:38.916Z,83.09
2022-08-11T23:38:11.245Z,83.19
2022-08-11T23:40:57.629Z,83.22
2022-08-11T23:43:44.009Z,83.17
2022-08-11T23:46:30.247Z,83.15
2022-08-11T23:49:21.491Z,83.15
2022-08-11T23:52:08.572Z,83.19
2022-08-11T23:54:56.380Z,83.39
2022-08-11T23:57:49.018Z,83.33
